createdAt,value
2022-11-10T00:01:14.536Z,39.58
2022-11-10T00:03:41.340Z,36.92
2022-11-10T00:06:09.709Z,36.40
2022-11-10T00:08:36.685Z,38.72
2022-11-10T00:11:08.696Z,38.30
2022-11-10T00:13:56.135Z,43.70
2022-11-10T00:16:41.528Z,36.28
2022-11-10T00:19:08.542Z,36.45
2022-11-10T00:21:36.646Z,34.50
2022-11-10T00:24:05.136Z,34.13
2022-11-10T00:26:31.968Z,34.58
2022-11-10T00:28:58.670Z,34.35
2022-11-10T00:31:28.525Z,35.78
2022-11-10T00:33:55.624Z,33.42
2022-11-10T00:36:22.311Z,30.80
2022-11-10T00:38:51.144Z,27.17
2022-11-10T00:41:17.848Z,25.33
2022-11-10T00:43:44.552Z,25.75
2022-11-10T00:46:11.262Z,26.55
2022-11-10T00:48:37.933Z,24.20
2022-11-10T00:51:05.484Z,23.60
2022-11-10T00:53:32.494Z,24.48
2022-11-10T00:55:59.115Z,22.33
2022-11-10T00:58:25.837Z,21.15
2022-11-10T01:01:02.097Z,21.27
2022-11-10T01:03:28.915Z,21.35
2022-11-10T01:05:55.621Z,19.73
2022-11-10T01:08:22.425Z,23.35
2022-11-10T01:10:49.131Z,20.02
2022-11-10T01:13:15.763Z,21.15
2022-11-10T01:15:43.394Z,22.27
2022-11-10T01:18:10.133Z,24.55
2022-11-10T01:20:36.850Z,25.58
2022-11-10T01:23:03.683Z,26.40
2022-11-10T01:25:30.362Z,25.45
2022-11-10T01:27:57.026Z,28.30
2022-11-10T01:30:23.786Z,26.80
2022-11-10T01:32:50.527Z,26.70
2022-11-10T01:35:17.268Z,26.42
2022-11-10T01:37:45.405Z,27.33
2022-11-10T01:40:12.467Z,31.80
2022-11-10T01:42:57.335Z,33.95
2022-11-10T01:45:24.030Z,31.83
2022-11-10T01:48:06.380Z,34.03
2022-11-10T01:50:37.657Z,35.80
2022-11-10T01:53:10.027Z,38.45
2022-11-10T01:55:41.436Z,40.53
2022-11-10T01:58:09.397Z,43.72
2022-11-10T02:00:36.393Z,41.28
2022-11-10T02:03:24.724Z,41.05
2022-11-10T02:05:51.782Z,42.58
2022-11-10T02:08:19.500Z,41.10
2022-11-10T02:10:46.135Z,41.38
2022-11-10T02:13:13.034Z,39.72
2022-11-10T02:15:39.703Z,36.28
2022-11-10T02:18:06.588Z,36.75
2022-11-10T02:20:33.589Z,36.97
2022-11-10T02:23:10.831Z,36.20
2022-11-10T02:25:37.917Z,32.40
2022-11-10T02:28:04.736Z,33.67
2022-11-10T02:30:31.423Z,34.47
2022-11-10T02:32:58.103Z,31.63
2022-11-10T02:35:24.801Z,30.95
2022-11-10T02:37:51.472Z,28.98
2022-11-10T02:40:18.182Z,29.30
2022-11-10T02:42:44.872Z,28.15
2022-11-10T02:45:11.541Z,27.88
2022-11-10T02:47:38.225Z,28.25
2022-11-10T02:50:05.131Z,26.63
2022-11-10T02:52:31.793Z,28.23
2022-11-10T02:54:58.700Z,28.38
2022-11-10T02:57:25.364Z,27.65
2022-11-10T02:59:52.005Z,27.50
2022-11-10T03:02:18.782Z,28.17
2022-11-10T03:04:45.434Z,27.38
2022-11-10T03:07:12.145Z,30.65
2022-11-10T03:09:39.289Z,29.95
2022-11-10T03:12:06.133Z,28.25
2022-11-10T03:14:32.790Z,28.88
2022-11-10T03:16:59.498Z,31.05
2022-11-10T03:19:26.164Z,29.90
2022-11-10T03:21:52.869Z,27.48
2022-11-10T03:24:19.766Z,27.88
2022-11-10T03:26:46.434Z,29.23
2022-11-10T03:29:13.102Z,29.15
2022-11-10T03:31:39.902Z,27.80
2022-11-10T03:34:06.579Z,31.27
2022-11-10T03:36:33.240Z,25.33
2022-11-10T03:38:59.981Z,26.15
2022-11-10T03:41:26.681Z,26.77
2022-11-10T03:43:53.431Z,26.50
2022-11-10T03:46:20.140Z,28.58
2022-11-10T03:48:52.938Z,25.90
2022-11-10T03:51:20.654Z,24.75
2022-11-10T03:53:47.405Z,26.80
2022-11-10T03:56:14.342Z,30.13
2022-11-10T03:58:41.304Z,25.88
2022-11-10T04:01:08.327Z,25.55
2022-11-10T04:03:35.005Z,26.55
2022-11-10T04:06:20.578Z,25.00
2022-11-10T04:08:59.388Z,26.70
2022-11-10T04:11:48.126Z,27.63
2022-11-10T04:14:34.374Z,27.25
2022-11-10T04:17:02.365Z,27.02
2022-11-10T04:19:29.539Z,25.40
2022-11-10T04:21:56.794Z,24.00
2022-11-10T04:24:23.537Z,25.48
2022-11-10T04:26:50.261Z,27.00
2022-11-10T04:29:19.061Z,22.77
2022-11-10T04:31:46.146Z,24.80
2022-11-10T04:34:14.915Z,26.38
2022-11-10T04:36:43.187Z,25.48
2022-11-10T04:39:10.306Z,26.83
2022-11-10T04:41:37.460Z,26.58
2022-11-10T04:44:04.570Z,29.02
2022-11-10T04:46:34.001Z,30.05
2022-11-10T04:49:01.259Z,29.00
2022-11-10T04:51:33.545Z,28.63
2022-11-10T04:54:00.641Z,28.48
2022-11-10T04:56:27.753Z,33.58
2022-11-10T04:58:55.084Z,29.63
2022-11-10T05:01:26.104Z,30.55
2022-11-10T05:03:53.787Z,30.10
2022-11-10T05:06:21.130Z,28.38
2022-11-10T05:08:48.546Z,29.98
2022-11-10T05:11:15.427Z,34.38
2022-11-10T05:13:43.085Z,33.72
2022-11-10T05:16:10.298Z,36.45
2022-11-10T05:18:37.199Z,37.95
2022-11-10T05:21:04.015Z,45.30
2022-11-10T05:23:39.909Z,48.35
2022-11-10T05:26:10.878Z,47.90
2022-11-10T05:28:38.961Z,53.50
2022-11-10T05:31:06.682Z,47.65
2022-11-10T05:33:34.649Z,47.80
2022-11-10T05:36:01.865Z,50.05
2022-11-10T05:38:28.978Z,50.38
2022-11-10T05:40:55.746Z,47.55
2022-11-10T05:43:22.920Z,49.13
2022-11-10T05:45:50.263Z,47.45
2022-11-10T05:48:17.016Z,46.63
2022-11-10T05:50:44.687Z,48.40
2022-11-10T05:53:12.049Z,53.55
2022-11-10T05:55:38.726Z,56.90
2022-11-10T05:58:05.384Z,57.72
2022-11-10T06:00:33.155Z,63.78
2022-11-10T06:03:05.967Z,57.60
2022-11-10T06:05:35.788Z,64.90
2022-11-10T06:08:04.349Z,62.72
2022-11-10T06:10:31.972Z,69.28
2022-11-10T06:12:59.134Z,61.75
2022-11-10T06:15:26.239Z,66.97
2022-11-10T06:17:53.666Z,64.90
2022-11-10T06:20:21.306Z,64.68
2022-11-10T06:23:01.918Z,70.32
2022-11-10T06:25:31.087Z,68.95
2022-11-10T06:27:58.422Z,70.10
2022-11-10T06:30:26.322Z,67.15
2022-11-10T06:32:53.965Z,69.05
2022-11-10T06:35:21.762Z,66.43
2022-11-10T06:38:02.597Z,67.32
2022-11-10T06:40:30.384Z,73.05
2022-11-10T06:42:57.686Z,65.53
2022-11-10T06:45:25.554Z,73.05
2022-11-10T06:48:07.371Z,70.32
2022-11-10T06:50:34.410Z,68.78
2022-11-10T06:53:01.448Z,69.25
2022-11-10T06:55:28.861Z,73.15
2022-11-10T06:57:55.900Z,74.75
2022-11-10T07:00:22.820Z,72.03
2022-11-10T07:03:02.219Z,76.82
2022-11-10T07:05:29.155Z,78.35
2022-11-10T07:07:55.927Z,79.53
2022-11-10T07:10:22.638Z,76.88
2022-11-10T07:12:55.210Z,77.93
2022-11-10T07:15:21.842Z,76.18
2022-11-10T07:17:48.781Z,80.32
2022-11-10T07:20:15.767Z,81.57
2022-11-10T07:22:42.414Z,76.28
2022-11-10T07:25:09.695Z,75.25
2022-11-10T07:27:36.362Z,78.28
2022-11-10T07:30:04.112Z,74.20
2022-11-10T07:32:30.992Z,70.13
2022-11-10T07:34:57.671Z,69.00
2022-11-10T07:37:24.453Z,69.07
2022-11-10T07:39:51.166Z,67.28
2022-11-10T07:42:17.850Z,68.05
2022-11-10T07:44:44.525Z,71.15
2022-11-10T07:47:11.211Z,72.85
2022-11-10T07:49:37.844Z,65.82
2022-11-10T07:52:04.531Z,66.63
2022-11-10T07:54:31.255Z,65.22
2022-11-10T07:56:57.903Z,62.92
2022-11-10T07:59:24.544Z,65.10
2022-11-10T08:01:51.309Z,66.20
2022-11-10T08:04:18.107Z,66.72
2022-11-10T08:06:44.936Z,65.82
2022-11-10T08:09:11.803Z,59.58
2022-11-10T08:11:38.568Z,65.63
2022-11-10T08:14:05.294Z,62.45
2022-11-10T08:16:32.524Z,57.90
2022-11-10T08:18:59.165Z,60.13
2022-11-10T08:21:25.802Z,61.15
2022-11-10T08:23:52.704Z,58.63
2022-11-10T08:26:19.390Z,60.60
2022-11-10T08:28:46.782Z,67.85
2022-11-10T08:31:13.510Z,67.75
2022-11-10T08:33:40.281Z,67.68
2022-11-10T08:36:07.292Z,71.28
2022-11-10T08:38:34.198Z,67.43
2022-11-10T08:41:00.975Z,67.75
2022-11-10T08:43:28.337Z,66.35
2022-11-10T08:45:58.380Z,66.82
2022-11-10T08:48:25.514Z,67.75
2022-11-10T08:50:52.318Z,66.10
2022-11-10T08:53:23.979Z,66.35
2022-11-10T08:55:52.170Z,64.30
2022-11-10T08:58:23.998Z,63.20
2022-11-10T09:00:51.621Z,66.68
2022-11-10T09:03:21.418Z,64.10
2022-11-10T09:05:55.058Z,60.15
2022-11-10T09:08:24.760Z,60.78
2022-11-10T09:10:51.557Z,69.90
2022-11-10T09:13:23.472Z,62.47
2022-11-10T09:15:53.003Z,62.45
2022-11-10T09:18:19.685Z,63.90
2022-11-10T09:20:46.454Z,63.63
2022-11-10T09:23:18.553Z,55.85
2022-11-10T09:25:51.847Z,60.70
2022-11-10T09:28:19.249Z,61.50
2022-11-10T09:30:47.828Z,62.50
2022-11-10T09:33:14.568Z,60.03
2022-11-10T09:35:41.938Z,64.88
2022-11-10T09:38:09.631Z,63.45
2022-11-10T09:41:03.859Z,62.03
2022-11-10T09:43:39.596Z,61.05
2022-11-10T09:46:27.506Z,70.47
2022-11-10T09:48:59.119Z,65.13
2022-11-10T09:51:32.984Z,67.95
2022-11-10T09:54:12.426Z,63.55
2022-11-10T09:56:39.239Z,61.38
2022-11-10T09:59:18.937Z,60.88
2022-11-10T10:01:48.923Z,69.93
2022-11-10T10:04:37.243Z,67.35
2022-11-10T10:07:20.794Z,65.78
2022-11-10T10:09:55.078Z,65.70
2022-11-10T10:12:57.235Z,66.32
2022-11-10T10:15:27.704Z,64.05
2022-11-10T10:18:07.855Z,61.55
2022-11-10T10:20:53.065Z,64.38
2022-11-10T10:24:12.569Z,64.20
2022-11-10T10:26:45.309Z,63.90
2022-11-10T10:29:21.323Z,61.42
2022-11-10T10:31:50.227Z,59.58
2022-11-10T10:34:28.898Z,71.15
2022-11-10T10:36:55.659Z,65.70
2022-11-10T10:39:44.266Z,58.65
2022-11-10T10:42:33.180Z,66.88
2022-11-10T10:45:18.866Z,62.38
2022-11-10T10:47:47.210Z,59.67
2022-11-10T10:50:26.955Z,59.08
2022-11-10T10:53:12.444Z,56.28
2022-11-10T10:55:45.291Z,58.05
2022-11-10T10:58:29.954Z,57.90
2022-11-10T11:01:07.502Z,54.75
2022-11-10T11:03:47.276Z,54.78
2022-11-10T11:06:17.156Z,55.75
2022-11-10T11:09:01.398Z,54.92
2022-11-10T11:11:33.320Z,53.90
2022-11-10T11:14:23.912Z,55.20
2022-11-10T11:16:51.762Z,52.08
2022-11-10T11:19:23.595Z,57.53
2022-11-10T11:21:59.239Z,48.53
2022-11-10T11:27:14.344Z,55.60
2022-11-10T11:30:09.345Z,53.40
2022-11-10T11:33:13.979Z,53.25
2022-11-10T11:36:12.003Z,51.63
2022-11-10T11:38:53.030Z,55.85
2022-11-10T11:41:34.043Z,54.83
2022-11-10T11:44:03.797Z,48.72
2022-11-10T11:46:50.419Z,51.72
2022-11-10T11:49:22.921Z,50.28
2022-11-10T11:52:11.182Z,57.25
2022-11-10T11:55:07.494Z,62.33
2022-11-10T11:58:10.963Z,64.50
2022-11-10T12:00:50.895Z,55.25
2022-11-10T12:03:34.400Z,59.47
2022-11-10T12:06:19.060Z,52.42
2022-11-10T12:08:54.698Z,64.32
2022-11-10T12:14:12.505Z,55.03
2022-11-10T12:16:41.353Z,61.90
2022-11-10T12:19:28.267Z,58.25
2022-11-10T12:22:04.280Z,61.88
2022-11-10T12:25:12.082Z,56.72
2022-11-10T12:27:44.175Z,60.45
2022-11-10T12:30:15.691Z,54.72
2022-11-10T12:33:01.474Z,57.38
2022-11-10T12:35:32.724Z,52.80
2022-11-10T12:38:02.982Z,54.95
2022-11-10T12:40:41.874Z,56.50
2022-11-10T12:43:25.322Z,52.53
2022-11-10T12:45:57.453Z,50.08
2022-11-10T12:48:25.796Z,53.10
2022-11-10T12:51:24.260Z,57.80
2022-11-10T12:53:51.536Z,58.47
2022-11-10T12:56:53.651Z,59.47
2022-11-10T12:59:20.301Z,68.65
2022-11-10T13:01:56.498Z,56.53
2022-11-10T13:04:23.672Z,55.35
2022-11-10T13:06:53.915Z,47.78
2022-11-10T13:09:36.523Z,48.00
2022-11-10T13:12:22.180Z,48.80
2022-11-10T13:14:49.819Z,55.33
2022-11-10T13:17:28.589Z,49.80
2022-11-10T13:20:05.226Z,42.63
2022-11-10T13:25:36.631Z,45.55
2022-11-10T13:28:05.074Z,48.15
2022-11-10T13:30:46.619Z,45.67
2022-11-10T13:33:30.504Z,48.10
2022-11-10T13:35:58.448Z,51.58
2022-11-10T13:38:40.867Z,54.15
2022-11-10T13:41:24.011Z,54.60
2022-11-10T13:43:55.712Z,59.63
2022-11-10T13:46:43.019Z,59.42
2022-11-10T13:49:27.770Z,63.67
2022-11-10T13:52:25.352Z,63.83
2022-11-10T13:55:21.481Z,62.97
2022-11-10T13:58:04.796Z,59.05
2022-11-10T14:00:34.707Z,67.55
2022-11-10T14:03:25.512Z,65.40
2022-11-10T14:06:09.504Z,65.43
2022-11-10T14:08:41.165Z,59.65
2022-11-10T14:11:22.663Z,58.97
2022-11-10T14:13:59.074Z,56.83
2022-11-10T14:16:31.361Z,56.80
2022-11-10T14:19:30.259Z,50.30
2022-11-10T14:22:02.849Z,54.30
2022-11-10T14:24:48.611Z,56.50
2022-11-10T14:27:23.625Z,65.38
2022-11-10T14:30:04.696Z,57.30
2022-11-10T14:32:31.552Z,59.72
2022-11-10T14:34:58.295Z,61.85
2022-11-10T14:37:28.627Z,58.08
2022-11-10T14:40:00.221Z,58.78
2022-11-10T14:42:31.000Z,58.63
2022-11-10T14:45:19.634Z,63.90
2022-11-10T14:48:00.584Z,62.30
2022-11-10T14:50:35.203Z,62.25
2022-11-10T14:53:23.968Z,65.23
2022-11-10T14:55:54.631Z,61.55
2022-11-10T14:58:31.992Z,62.33
2022-11-10T15:00:59.450Z,65.25
2022-11-10T15:03:43.105Z,63.63
2022-11-10T15:06:12.646Z,64.53
2022-11-10T15:08:40.890Z,60.38
2022-11-10T15:11:28.094Z,62.22
2022-11-10T15:13:54.779Z,66.72
2022-11-10T15:16:25.359Z,64.45
2022-11-10T15:18:53.800Z,68.53
2022-11-10T15:21:30.358Z,65.72
2022-11-10T15:24:01.290Z,64.70
2022-11-10T15:26:31.992Z,57.85
2022-11-10T15:28:58.850Z,62.55
2022-11-10T15:31:28.150Z,60.80
2022-11-10T15:34:00.636Z,65.32
2022-11-10T15:36:36.072Z,64.72
2022-11-10T15:39:16.756Z,60.30
2022-11-10T15:41:48.297Z,62.53
2022-11-10T15:44:17.717Z,68.38
2022-11-10T15:46:44.994Z,61.95
2022-11-10T15:49:21.137Z,63.67
2022-11-10T15:51:48.943Z,62.33
2022-11-10T15:54:18.895Z,69.95
2022-11-10T15:56:45.589Z,65.80
2022-11-10T15:59:12.271Z,65.55
2022-11-10T16:01:39.243Z,63.45
2022-11-10T16:04:09.698Z,67.85
2022-11-10T16:06:37.343Z,64.28
2022-11-10T16:09:04.579Z,64.35
2022-11-10T16:11:32.167Z,67.05
2022-11-10T16:14:00.338Z,72.85
2022-11-10T16:16:27.164Z,66.25
2022-11-10T16:18:53.839Z,65.90
2022-11-10T16:21:25.382Z,63.25
2022-11-10T16:23:52.913Z,69.80
2022-11-10T16:26:25.434Z,68.45
2022-11-10T16:28:52.202Z,64.95
2022-11-10T16:31:21.941Z,69.15
2022-11-10T16:33:49.591Z,68.53
2022-11-10T16:36:28.906Z,64.30
2022-11-10T16:38:56.654Z,61.90
2022-11-10T16:41:23.687Z,69.05
2022-11-10T16:43:50.750Z,66.78
2022-11-10T16:46:26.450Z,69.57
2022-11-10T16:48:56.251Z,66.78
2022-11-10T16:51:30.799Z,63.97
2022-11-10T16:53:59.415Z,61.50
2022-11-10T16:56:27.220Z,74.72
2022-11-10T16:58:55.135Z,68.13
2022-11-10T17:01:26.240Z,69.72
2022-11-10T17:03:57.019Z,67.25
2022-11-10T17:06:25.269Z,64.10
2022-11-10T17:08:54.163Z,66.32
2022-11-10T17:11:22.079Z,65.55
2022-11-10T17:13:48.709Z,61.97
2022-11-10T17:16:28.876Z,66.10
2022-11-10T17:18:57.591Z,65.65
2022-11-10T17:21:27.364Z,71.45
2022-11-10T17:23:58.671Z,65.35
2022-11-10T17:26:25.770Z,71.28
2022-11-10T17:28:52.455Z,66.30
2022-11-10T17:31:19.162Z,64.97
2022-11-10T17:33:45.980Z,66.90
2022-11-10T17:36:17.473Z,65.70
2022-11-10T17:38:44.728Z,65.43
2022-11-10T17:41:19.371Z,68.90
2022-11-10T17:43:46.987Z,65.78
2022-11-10T17:46:14.768Z,64.47
2022-11-10T17:48:41.669Z,70.53
2022-11-10T17:51:16.842Z,67.47
2022-11-10T17:53:43.665Z,71.82
2022-11-10T17:56:10.325Z,69.25
2022-11-10T17:58:37.425Z,68.90
2022-11-10T18:01:18.473Z,74.85
2022-11-10T18:03:46.465Z,71.93
2022-11-10T18:06:14.662Z,71.38
2022-11-10T18:08:42.015Z,72.00
2022-11-10T18:11:13.660Z,73.82
2022-11-10T18:13:41.239Z,74.60
2022-11-10T18:16:09.390Z,71.43
2022-11-10T18:18:36.666Z,68.57
2022-11-10T18:21:04.589Z,72.05
2022-11-10T18:23:31.635Z,72.63
2022-11-10T18:26:09.087Z,72.80
2022-11-10T18:28:36.143Z,70.93
2022-11-10T18:31:07.537Z,66.47
2022-11-10T18:33:34.610Z,72.80
2022-11-10T18:36:01.931Z,73.15
2022-11-10T18:38:29.380Z,71.00
2022-11-10T18:40:56.126Z,71.32
2022-11-10T18:43:23.029Z,66.15
2022-11-10T18:45:53.561Z,74.85
2022-11-10T18:48:25.582Z,71.47
2022-11-10T18:50:55.475Z,71.60
2022-11-10T18:53:22.439Z,81.63
2022-11-10T18:55:55.986Z,71.50
2022-11-10T18:58:22.716Z,70.00
2022-11-10T19:00:49.762Z,74.63
2022-11-10T19:03:16.408Z,76.07
2022-11-10T19:05:43.167Z,79.60
2022-11-10T19:08:10.728Z,78.82
2022-11-10T19:10:42.190Z,80.28
2022-11-10T19:13:08.980Z,76.65
2022-11-10T19:15:40.936Z,79.68
2022-11-10T19:18:07.542Z,82.20
2022-11-10T19:20:38.304Z,82.25
2022-11-10T19:23:04.965Z,81.45
2022-11-10T19:25:31.964Z,80.65
2022-11-10T19:27:58.736Z,80.75
2022-11-10T19:30:25.730Z,85.88
2022-11-10T19:32:52.447Z,84.47
2022-11-10T19:35:19.178Z,86.30
2022-11-10T19:37:48.095Z,83.50
2022-11-10T19:40:14.836Z,85.93
2022-11-10T19:42:41.576Z,87.93
2022-11-10T19:45:08.852Z,88.05
2022-11-10T19:47:35.528Z,84.45
2022-11-10T19:50:02.322Z,83.93
2022-11-10T19:52:30.795Z,86.88
2022-11-10T19:54:57.462Z,89.25
2022-11-10T19:57:24.239Z,88.53
2022-11-10T19:59:50.988Z,92.35
2022-11-10T20:02:18.765Z,81.88
2022-11-10T20:05:04.379Z,89.68
2022-11-10T20:07:49.678Z,92.35
2022-11-10T20:10:16.579Z,86.35
2022-11-10T20:12:43.266Z,88.22
2022-11-10T20:15:10.956Z,85.07
2022-11-10T20:17:37.700Z,91.50
2022-11-10T20:20:05.022Z,87.53
2022-11-10T20:22:31.714Z,100.80
2022-11-10T20:24:58.672Z,94.25
2022-11-10T20:27:25.426Z,103.47
2022-11-10T20:29:52.151Z,106.90
2022-11-10T20:32:18.903Z,105.22
2022-11-10T20:34:45.619Z,99.75
2022-11-10T20:37:12.342Z,104.38
2022-11-10T20:39:39.187Z,94.18
2022-11-10T20:42:05.866Z,100.50
2022-11-10T20:44:32.545Z,100.28
2022-11-10T20:46:59.434Z,102.13
2022-11-10T20:49:26.134Z,100.93
2022-11-10T20:51:52.809Z,98.25
2022-11-10T20:54:19.487Z,98.40
2022-11-10T20:56:46.155Z,93.20
2022-11-10T20:59:12.818Z,93.57
2022-11-10T21:01:40.065Z,101.95
2022-11-10T21:04:06.871Z,95.03
2022-11-10T21:06:33.635Z,93.10
2022-11-10T21:09:00.403Z,91.63
2022-11-10T21:11:45.582Z,97.57
2022-11-10T21:14:12.557Z,92.43
2022-11-10T21:16:39.220Z,93.78
2022-11-10T21:19:06.148Z,85.22
2022-11-10T21:21:36.268Z,94.43
2022-11-10T21:24:04.302Z,81.82
2022-11-10T21:26:34.850Z,82.28
2022-11-10T21:29:03.607Z,80.93
2022-11-10T21:31:30.868Z,88.20
2022-11-10T21:33:58.578Z,89.97
2022-11-10T21:36:29.196Z,91.05
2022-11-10T21:38:57.350Z,89.05
2022-11-10T21:41:25.068Z,85.25
2022-11-10T21:43:52.205Z,88.60
2022-11-10T21:46:19.244Z,86.30
2022-11-10T21:48:45.931Z,96.25
2022-11-10T21:51:14.218Z,90.35
2022-11-10T21:53:44.137Z,89.00
2022-11-10T21:56:11.904Z,86.25
2022-11-10T21:58:40.199Z,87.40
2022-11-10T22:01:17.022Z,90.43
2022-11-10T22:03:43.891Z,91.30
2022-11-10T22:06:17.935Z,90.63
2022-11-10T22:08:46.699Z,88.15
2022-11-10T22:11:34.650Z,89.05
2022-11-10T22:14:20.059Z,94.68
2022-11-10T22:17:09.866Z,89.72
2022-11-10T22:19:37.447Z,87.20
2022-11-10T22:22:04.530Z,88.88
2022-11-10T22:24:31.538Z,95.78
2022-11-10T22:27:00.329Z,92.70
2022-11-10T22:29:32.317Z,93.85
2022-11-10T22:32:02.890Z,85.50
2022-11-10T22:34:29.884Z,89.15
2022-11-10T22:36:56.996Z,88.97
2022-11-10T22:39:48.072Z,82.75
2022-11-10T22:42:33.431Z,94.40
2022-11-10T22:45:00.350Z,88.53
2022-11-10T22:47:47.042Z,87.40
2022-11-10T22:50:13.807Z,97.40
2022-11-10T22:52:40.460Z,91.22
2022-11-10T22:55:07.423Z,90.50
2022-11-10T22:57:34.123Z,92.90
2022-11-10T23:00:00.745Z,94.28
2022-11-10T23:02:27.418Z,88.05
2022-11-10T23:04:54.200Z,88.47
2022-11-10T23:07:20.879Z,89.60
2022-11-10T23:09:47.581Z,83.07
2022-11-10T23:12:14.322Z,93.07
2022-11-10T23:14:41.010Z,90.50
2022-11-10T23:17:08.178Z,91.60
2022-11-10T23:19:34.899Z,82.53
2022-11-10T23:22:01.532Z,92.78
2022-11-10T23:24:28.204Z,91.05
2022-11-10T23:26:54.930Z,92.13
2022-11-10T23:29:21.654Z,87.40
2022-11-10T23:31:48.299Z,82.00
2022-11-10T23:34:14.972Z,85.35
2022-11-10T23:36:42.003Z,86.30
2022-11-10T23:39:08.945Z,86.15
2022-11-10T23:41:35.692Z,83.40
2022-11-10T23:44:02.391Z,88.22
2022-11-10T23:46:29.050Z,83.65
2022-11-10T23:48:55.769Z,81.35
2022-11-10T23:51:24.691Z,82.72
2022-11-10T23:53:51.426Z,86.60
2022-11-10T23:56:18.179Z,88.32
2022-11-10T23:58:44.898Z,87.43
